Time;durP1;ratioP1;P1;durP2;ratioP2;P2;SDS_P1;SDS_P2;PMS_P1;PMS_P2;Temp;Humidity;BMP_temperature;BMP_pressure;BME280_temperature;BME280_humidity;BME280_pressure;Samples;Min_cycle;Max_cycle;Signal;HPM_P1;HPM_P2
2023/04/09 00:00:42;;;;;;;37.25;14.73;;;5.50;95.10;;;;;;5007288;28;20056;-78
2023/04/09 00:03:09;;;;;;;35.47;12.75;;;5.40;95.40;;;;;;5004651;28;20049;-78
2023/04/09 00:05:40;;;;;;;36.65;13.63;;;5.40;95.30;;;;;;5024293;28;20398;-77
2023/04/09 00:08:07;;;;;;;39.30;14.25;;;5.40;95.10;;;;;;5025604;28;20057;-78
2023/04/09 00:10:34;;;;;;;34.50;14.15;;;5.30;95.70;;;;;;5041263;28;20060;-78
2023/04/09 00:13:01;;;;;;;32.47;13.98;;;5.30;95.70;;;;;;5030365;28;20056;-77
2023/04/09 00:15:27;;;;;;;34.75;12.73;;;5.30;95.90;;;;;;5029373;28;20049;-77
2023/04/09 00:17:58;;;;;;;37.45;14.32;;;5.20;96.10;;;;;;5028410;28;20076;-78
2023/04/09 00:20:25;;;;;;;34.33;12.80;;;5.20;96.30;;;;;;5012041;28;20053;-79
2023/04/09 00:22:52;;;;;;;35.85;14.38;;;5.20;96.50;;;;;;5030624;28;20505;-78
2023/04/09 00:25:19;;;;;;;35.65;13.35;;;5.20;96.40;;;;;;5010984;28;20444;-78
2023/04/09 00:27:46;;;;;;;34.92;13.50;;;5.10;96.60;;;;;;5030022;28;20080;-77
2023/04/09 00:30:13;;;;;;;38.78;13.20;;;5.10;96.50;;;;;;5027547;28;20103;-78
2023/04/09 00:32:40;;;;;;;30.35;13.07;;;5.10;96.50;;;;;;5034880;28;20049;-77
2023/04/09 00:35:08;;;;;;;39.22;13.43;;;5.10;96.60;;;;;;5027909;28;20051;-78
2023/04/09 00:37:34;;;;;;;32.20;13.13;;;5.00;96.90;;;;;;5028601;28;20124;-78
2023/04/09 00:40:01;;;;;;;42.25;13.23;;;5.00;97.30;;;;;;5027769;28;20535;-78
2023/04/09 00:42:36;;;;;;;36.08;13.52;;;5.00;97.20;;;;;;5012201;28;20045;-78
2023/04/09 00:45:04;;;;;;;36.38;12.65;;;5.00;97.70;;;;;;5029155;28;20764;-77
2023/04/09 00:47:33;;;;;;;34.60;12.77;;;5.00;97.70;;;;;;5028862;28;20099;-78
2023/04/09 00:50:00;;;;;;;34.33;13.60;;;5.00;97.80;;;;;;5028147;28;20128;-78
2023/04/09 00:52:31;;;;;;;40.42;13.40;;;5.00;97.60;;;;;;5012737;28;20053;-78
2023/04/09 00:55:04;;;;;;;39.05;13.32;;;5.00;97.70;;;;;;5029553;28;20041;-78
2023/04/09 00:57:31;;;;;;;34.30;14.07;;;5.00;97.80;;;;;;5028009;28;20037;-78
2023/04/09 00:59:57;;;;;;;36.50;14.50;;;5.00;97.90;;;;;;5029349;28;20045;-78
2023/04/09 01:02:25;;;;;;;31.05;12.75;;;5.00;97.80;;;;;;5030734;28;20049;-78
2023/04/09 01:04:52;;;;;;;32.47;13.73;;;5.00;98.30;;;;;;5012578;28;20531;-78
2023/04/09 01:07:38;;;;;;;35.85;13.98;;;5.00;98.10;;;;;;5030814;28;20422;-78
2023/04/09 01:10:11;;;;;;;;;;;5.00;98.10;;;;;;5027139;28;20046;-78
2023/04/09 01:13:05;;;;;;;42.70;14.70;;;5.00;97.70;;;;;;5039186;28;19925;-78
2023/04/09 01:15:37;;;;;;;40.50;13.75;;;5.00;97.80;;;;;;5028549;28;20050;-78
2023/04/09 01:18:22;;;;;;;31.02;12.82;;;5.00;97.60;;;;;;5027189;28;20054;-78
2023/04/09 01:21:18;;;;;;;40.13;15.18;;;5.00;97.80;;;;;;5026020;28;20099;-78
2023/04/09 01:23:55;;;;;;;32.88;14.98;;;5.00;97.60;;;;;;5027080;28;20045;-77
2023/04/09 01:26:51;;;;;;;34.22;14.48;;;5.00;97.80;;;;;;5025772;28;20819;-77
2023/04/09 01:29:21;;;;;;;36.80;13.63;;;5.00;98.10;;;;;;5026029;28;20095;-77
2023/04/09 01:31:49;;;;;;;43.63;13.70;;;5.00;98.10;;;;;;5009576;28;20091;-77
2023/04/09 01:34:16;;;;;;;44.65;15.25;;;5.00;97.80;;;;;;5009227;28;20041;-78
2023/04/09 01:36:50;;;;;;;40.25;13.40;;;5.00;97.70;;;;;;5014190;28;20041;-77
2023/04/09 01:39:18;;;;;;;40.13;14.32;;;5.00;97.80;;;;;;5027206;28;20049;-78
2023/04/09 01:41:47;;;;;;;42.25;13.82;;;5.00;97.90;;;;;;5029700;28;20045;-78
2023/04/09 01:44:15;;;;;;;40.60;14.02;;;5.00;98.00;;;;;;5010626;28;20054;-78
2023/04/09 01:46:42;;;;;;;35.95;14.00;;;5.00;97.70;;;;;;5025340;28;20053;-77
2023/04/09 01:49:10;;;;;;;40.42;14.27;;;5.00;97.60;;;;;;5009758;28;20057;-78
2023/04/09 01:51:37;;;;;;;38.45;14.70;;;5.00;97.80;;;;;;5028951;28;20421;-77
2023/04/09 01:54:04;;;;;;;39.22;15.27;;;5.00;98.00;;;;;;5026404;28;20049;-77
2023/04/09 01:56:45;;;;;;;38.38;14.20;;;5.00;98.00;;;;;;5029715;28;20676;-77
2023/04/09 01:59:12;;;;;;;38.63;13.60;;;5.00;97.70;;;;;;5027253;28;20041;-77
2023/04/09 02:01:48;;;;;;;47.88;14.70;;;5.00;98.10;;;;;;5008827;28;20049;-77
2023/04/09 02:04:23;;;;;;;42.60;14.00;;;5.00;98.00;;;;;;5033075;28;20078;-77
2023/04/09 02:07:08;;;;;;;38.35;14.23;;;5.00;98.10;;;;;;5027563;28;20045;-77
2023/04/09 02:09:38;;;;;;;42.50;15.30;;;5.00;98.10;;;;;;5018732;28;20060;-78
2023/04/09 02:12:09;;;;;;;47.63;15.43;;;5.00;98.30;;;;;;5020923;28;20126;-77
2023/04/09 02:14:37;;;;;;;33.05;14.40;;;5.00;98.10;;;;;;5039263;28;20076;-78
2023/04/09 02:17:04;;;;;;;35.65;14.98;;;5.00;98.10;;;;;;5027337;28;20638;-77
2023/04/09 02:19:41;;;;;;;44.63;15.70;;;4.90;98.00;;;;;;5029378;28;20405;-77
2023/04/09 02:22:08;;;;;;;46.05;16.58;;;5.00;98.10;;;;;;5026296;28;20057;-78
2023/04/09 02:24:35;;;;;;;37.92;15.52;;;5.00;98.10;;;;;;5029916;28;20765;-77
2023/04/09 02:27:03;;;;;;;40.63;14.93;;;5.00;98.20;;;;;;5029413;28;20136;-77
2023/04/09 02:29:30;;;;;;;40.83;15.52;;;5.00;98.00;;;;;;5004246;28;20058;-77
2023/04/09 02:31:57;;;;;;;41.75;15.85;;;5.00;97.90;;;;;;5027411;28;20041;-77
2023/04/09 02:34:24;;;;;;;46.30;16.33;;;5.00;98.00;;;;;;5025180;28;20062;-77
2023/04/09 02:36:51;;;;;;;37.40;14.25;;;5.00;97.80;;;;;;5011373;28;20041;-77
2023/04/09 02:39:18;;;;;;;34.35;14.50;;;5.00;97.80;;;;;;5027405;28;20071;-77
2023/04/09 02:41:45;;;;;;;35.58;14.07;;;5.00;97.70;;;;;;5025364;28;20072;-77
2023/04/09 02:44:12;;;;;;;44.80;14.73;;;5.00;97.80;;;;;;5025361;28;20481;-77
2023/04/09 02:46:40;;;;;;;38.33;14.80;;;5.00;97.90;;;;;;5028129;28;20060;-77
2023/04/09 02:49:07;;;;;;;44.45;15.30;;;5.00;98.00;;;;;;5008725;28;20054;-77
2023/04/09 02:51:34;;;;;;;31.73;13.10;;;5.00;97.90;;;;;;5025046;28;20045;-77
2023/04/09 02:54:02;;;;;;;39.88;14.35;;;4.90;97.60;;;;;;5027232;28;20398;-78
2023/04/09 02:56:29;;;;;;;33.30;13.68;;;5.00;97.70;;;;;;5010765;28;21206;-78
2023/04/09 02:58:56;;;;;;;42.10;14.98;;;4.90;97.50;;;;;;5038673;28;20102;-77
2023/04/09 03:01:23;;;;;;;39.40;13.95;;;4.90;97.60;;;;;;5027643;28;20793;-78
2023/04/09 03:03:50;;;;;;;35.13;13.30;;;4.90;97.10;;;;;;5030037;28;20045;-78
2023/04/09 03:06:17;;;;;;;35.58;13.13;;;4.90;97.60;;;;;;5026228;28;20053;-78
2023/04/09 03:08:44;;;;;;;35.38;14.35;;;4.90;97.60;;;;;;5026086;28;20053;-78
2023/04/09 03:11:11;;;;;;;36.00;13.95;;;4.90;97.70;;;;;;5024885;28;20474;-77
2023/04/09 03:13:38;;;;;;;33.53;13.43;;;4.90;97.50;;;;;;5025917;28;20046;-78
2023/04/09 03:16:05;;;;;;;37.88;13.23;;;4.90;97.50;;;;;;5026280;28;20049;-77
2023/04/09 03:18:32;;;;;;;42.15;14.27;;;4.90;97.40;;;;;;5025978;28;20079;-78
2023/04/09 03:20:59;;;;;;;34.30;13.15;;;4.90;97.70;;;;;;5006270;28;20486;-78
2023/04/09 03:23:25;;;;;;;43.03;13.18;;;4.90;97.40;;;;;;5029095;28;20050;-77
2023/04/09 03:26:00;;;;;;;37.55;13.05;;;4.90;97.40;;;;;;5010197;28;20073;-77
2023/04/09 03:28:27;;;;;;;40.65;13.80;;;4.90;97.40;;;;;;5024015;28;20057;-77
2023/04/09 03:30:54;;;;;;;42.28;14.23;;;4.90;97.50;;;;;;5039656;28;20136;-77
2023/04/09 03:33:20;;;;;;;41.15;14.77;;;4.90;97.10;;;;;;5025861;28;20048;-77
2023/04/09 03:35:47;;;;;;;46.10;14.00;;;4.90;97.20;;;;;;5026001;28;20045;-77
2023/04/09 03:38:14;;;;;;;36.78;13.10;;;4.90;97.40;;;;;;5025994;28;20582;-77
2023/04/09 03:40:41;;;;;;;38.40;14.55;;;4.90;97.30;;;;;;5024479;28;20103;-77
2023/04/09 03:43:08;;;;;;;41.13;13.75;;;4.90;97.70;;;;;;5027054;28;20056;-77
2023/04/09 03:45:35;;;;;;;37.25;12.30;;;4.90;97.50;;;;;;5029603;28;20045;-77
2023/04/09 03:48:02;;;;;;;32.60;13.57;;;4.90;97.60;;;;;;5018768;28;20486;-77
2023/04/09 03:50:29;;;;;;;38.22;12.73;;;4.90;97.40;;;;;;5031431;28;20053;-77
2023/04/09 03:52:55;;;;;;;46.15;13.80;;;4.90;97.30;;;;;;5030897;28;20087;-77
2023/04/09 03:55:22;;;;;;;43.10;14.15;;;4.90;97.30;;;;;;5029294;28;20474;-77
2023/04/09 03:57:49;;;;;;;35.97;12.85;;;4.90;97.40;;;;;;5011798;28;20049;-77
2023/04/09 04:00:16;;;;;;;41.95;12.60;;;4.90;97.40;;;;;;5028875;28;20041;-77
2023/04/09 04:02:43;;;;;;;39.10;14.38;;;4.90;97.20;;;;;;5031584;28;20053;-78
2023/04/09 04:05:11;;;;;;;34.80;13.10;;;4.90;97.30;;;;;;5029001;28;20079;-77
2023/04/09 04:07:37;;;;;;;40.15;13.55;;;4.90;97.40;;;;;;5010084;28;20056;-77
2023/04/09 04:10:05;;;;;;;43.38;13.77;;;4.90;97.30;;;;;;5026611;28;20052;-77
2023/04/09 04:12:32;;;;;;;32.75;13.77;;;4.90;97.30;;;;;;5028193;28;20042;-77
2023/04/09 04:15:00;;;;;;;37.35;14.25;;;4.90;97.20;;;;;;5025992;28;20046;-77
2023/04/09 04:17:27;;;;;;;40.55;14.40;;;4.90;97.30;;;;;;5027210;28;20060;-78
2023/04/09 04:19:54;;;;;;;37.75;13.93;;;4.90;97.40;;;;;;5029207;28;20053;-78
2023/04/09 04:22:21;;;;;;;37.65;14.15;;;4.90;97.50;;;;;;5026992;28;20530;-77
2023/04/09 04:24:51;;;;;;;37.03;12.82;;;4.90;97.50;;;;;;5011759;28;20132;-77
2023/04/09 04:27:18;;;;;;;41.53;14.15;;;4.90;97.60;;;;;;5029220;28;21809;-77
2023/04/09 04:29:44;;;;;;;34.97;12.77;;;4.90;97.60;;;;;;5031640;28;20057;-77
2023/04/09 04:32:11;;;;;;;34.83;13.50;;;4.90;97.90;;;;;;5027951;28;20088;-77
2023/04/09 04:34:38;;;;;;;35.85;13.18;;;4.90;97.90;;;;;;5030117;28;20045;-78
2023/04/09 04:37:04;;;;;;;36.17;13.70;;;4.90;97.90;;;;;;5029326;28;20053;-78
2023/04/09 04:39:31;;;;;;;43.05;14.35;;;4.90;97.90;;;;;;5027604;28;20041;-79
2023/04/09 04:41:58;;;;;;;45.53;14.25;;;4.90;98.00;;;;;;5031033;28;20064;-79
2023/04/09 04:44:25;;;;;;;38.63;13.65;;;4.90;98.10;;;;;;5029344;28;20103;-78
2023/04/09 04:46:52;;;;;;;41.92;14.02;;;4.80;98.30;;;;;;5027392;28;20054;-78
2023/04/09 04:49:18;;;;;;;32.70;13.95;;;4.80;98.40;;;;;;5030527;28;20520;-79
2023/04/09 04:51:45;;;;;;;36.08;14.10;;;4.80;98.40;;;;;;5029959;28;20076;-79
2023/04/09 04:54:12;;;;;;;35.22;13.15;;;4.80;98.80;;;;;;5029766;28;20045;-78
2023/04/09 04:56:39;;;;;;;48.17;14.07;;;4.80;98.80;;;;;;5028617;28;20056;-78
2023/04/09 04:59:05;;;;;;;36.15;12.65;;;4.80;99.00;;;;;;5027927;28;20747;-78
2023/04/09 05:01:32;;;;;;;43.05;14.23;;;4.80;99.30;;;;;;5028814;28;20045;-79
2023/04/09 05:04:01;;;;;;;39.53;13.02;;;4.80;99.30;;;;;;5026165;28;20715;-77
2023/04/09 05:06:28;;;;;;;49.05;14.30;;;4.80;99.20;;;;;;5029963;28;20053;-80
2023/04/09 05:08:57;;;;;;;48.92;14.05;;;4.80;99.30;;;;;;5030172;28;20068;-80
2023/04/09 05:11:24;;;;;;;32.63;12.93;;;4.80;99.40;;;;;;5015202;28;20049;-81
2023/04/09 05:13:51;;;;;;;37.72;13.00;;;4.80;99.50;;;;;;5027566;28;20056;-78
2023/04/09 05:16:18;;;;;;;40.28;13.13;;;4.80;99.70;;;;;;5011117;28;20080;-82
2023/04/09 05:18:46;;;;;;;37.40;13.35;;;4.80;99.80;;;;;;5013581;28;20121;-78
2023/04/09 05:21:13;;;;;;;34.78;13.23;;;4.80;99.60;;;;;;5025016;28;20048;-81
2023/04/09 05:23:40;;;;;;;37.00;12.80;;;4.80;100.00;;;;;;5012726;28;20045;-83
2023/04/09 05:26:07;;;;;;;42.65;14.55;;;4.90;100.00;;;;;;5032022;28;20048;-81
2023/04/09 05:28:33;;;;;;;47.53;14.68;;;4.80;100.00;;;;;;5036384;28;20042;-83
2023/04/09 05:31:00;;;;;;;50.35;14.02;;;4.90;100.00;;;;;;5024743;28;20746;-79
2023/04/09 05:33:27;;;;;;;38.13;13.93;;;4.90;100.00;;;;;;5012037;28;20496;-85
2023/04/09 05:35:54;;;;;;;39.00;13.00;;;4.90;100.00;;;;;;5027306;28;20551;-84
2023/04/09 05:38:21;;;;;;;41.83;14.38;;;4.90;100.00;;;;;;5032014;28;20041;-82
2023/04/09 05:40:48;;;;;;;37.67;13.43;;;4.90;100.00;;;;;;5035427;28;20705;-81
2023/04/09 05:43:15;;;;;;;46.30;14.43;;;4.90;100.00;;;;;;5031144;28;20061;-84
2023/04/09 05:45:42;;;;;;;39.83;13.75;;;4.90;100.00;;;;;;5012670;28;20061;-80
2023/04/09 05:48:09;;;;;;;37.92;14.13;;;4.90;100.00;;;;;;5031561;28;20045;-76
2023/04/09 05:50:35;;;;;;;41.95;15.25;;;4.90;100.00;;;;;;5007863;28;20069;-76
2023/04/09 05:53:20;;;;;;;42.53;14.93;;;4.90;100.00;;;;;;5033954;28;20045;-77
2023/04/09 05:55:50;;;;;;;47.72;15.57;;;5.00;100.00;;;;;;5026433;28;20074;-77
2023/04/09 05:58:20;;;;;;;48.42;15.07;;;5.00;100.00;;;;;;5025202;28;20045;-80
2023/04/09 06:00:47;;;;;;;39.30;13.52;;;5.00;100.00;;;;;;5007824;28;20060;-79
2023/04/09 06:03:14;;;;;;;45.75;15.50;;;5.00;100.00;;;;;;5009394;28;20095;-77
2023/04/09 06:05:41;;;;;;;37.63;14.70;;;5.00;100.00;;;;;;5025243;28;20049;-77
2023/04/09 06:08:08;;;;;;;44.78;15.02;;;5.00;100.00;;;;;;5010141;28;20064;-78
2023/04/09 06:10:35;;;;;;;44.15;14.38;;;5.00;100.00;;;;;;5026963;28;20056;-76
2023/04/09 06:13:01;;;;;;;49.63;13.95;;;5.00;100.00;;;;;;5026126;28;20107;-76
2023/04/09 06:15:28;;;;;;;50.22;14.43;;;5.00;100.00;;;;;;5007555;28;20050;-76
2023/04/09 06:17:55;;;;;;;41.05;15.98;;;5.00;100.00;;;;;;5020108;28;20056;-77
2023/04/09 06:20:25;;;;;;;47.63;14.20;;;5.00;100.00;;;;;;5026358;28;20135;-80
2023/04/09 06:22:51;;;;;;;39.45;14.65;;;5.10;100.00;;;;;;5025498;28;20128;-79
2023/04/09 06:25:18;;;;;;;44.05;15.50;;;5.10;100.00;;;;;;5026121;28;20055;-77
2023/04/09 06:27:45;;;;;;;42.58;15.48;;;5.10;100.00;;;;;;5027439;28;20069;-77
2023/04/09 06:30:12;;;;;;;48.70;14.57;;;5.10;100.00;;;;;;5011530;28;20042;-79
2023/04/09 06:32:39;;;;;;;49.00;14.48;;;5.10;100.00;;;;;;5014930;28;20037;-79
2023/04/09 06:35:20;;;;;;;42.65;15.13;;;5.10;100.00;;;;;;5012157;28;20519;-78
2023/04/09 06:37:46;;;;;;;41.47;14.18;;;5.10;100.00;;;;;;5027427;28;20457;-76
2023/04/09 06:40:13;;;;;;;52.60;15.25;;;5.20;100.00;;;;;;5024981;28;20049;-77
2023/04/09 06:42:40;;;;;;;42.15;14.52;;;5.20;100.00;;;;;;5012449;28;20049;-79
2023/04/09 06:45:08;;;;;;;48.25;15.45;;;5.20;100.00;;;;;;5033258;28;20048;-80
2023/04/09 06:47:35;;;;;;;56.45;16.05;;;5.20;100.00;;;;;;5003521;28;20077;-77
2023/04/09 06:50:02;;;;;;;45.47;16.05;;;5.30;100.00;;;;;;5028221;28;20087;-78
2023/04/09 06:52:29;;;;;;;43.65;15.35;;;5.30;100.00;;;;;;5008840;28;20460;-77
2023/04/09 06:54:56;;;;;;;44.25;15.70;;;5.30;100.00;;;;;;5025763;28;20137;-78
2023/04/09 06:57:23;;;;;;;49.47;15.57;;;5.30;100.00;;;;;;5025521;28;20052;-77
2023/04/09 06:59:50;;;;;;;44.83;16.45;;;5.40;100.00;;;;;;5025391;28;20080;-76
2023/04/09 07:02:17;;;;;;;40.58;16.13;;;5.40;100.00;;;;;;5023785;28;20060;-77
2023/04/09 07:04:44;;;;;;;54.80;22.95;;;5.40;100.00;;;;;;5022686;28;20486;-77
2023/04/09 07:07:11;;;;;;;55.78;20.38;;;5.40;100.00;;;;;;5024698;28;20053;-76
2023/04/09 07:09:38;;;;;;;46.25;17.63;;;5.40;100.00;;;;;;5007237;28;20514;-77
2023/04/09 07:12:05;;;;;;;52.55;17.67;;;5.40;100.00;;;;;;5024444;28;20417;-79
2023/04/09 07:14:32;;;;;;;42.10;17.10;;;5.50;100.00;;;;;;5026624;28;20041;-76
2023/04/09 07:16:58;;;;;;;49.92;16.63;;;5.50;100.00;;;;;;5026542;28;20454;-77
2023/04/09 07:19:25;;;;;;;57.15;17.60;;;5.50;100.00;;;;;;5025385;28;20092;-76
2023/04/09 07:21:52;;;;;;;51.58;17.55;;;5.40;100.00;;;;;;5006583;28;20440;-78
2023/04/09 07:24:19;;;;;;;55.70;18.20;;;5.40;100.00;;;;;;5006988;28;20045;-77
2023/04/09 07:26:45;;;;;;;69.50;22.48;;;5.40;100.00;;;;;;5024822;28;20049;-77
2023/04/09 07:29:12;;;;;;;57.78;18.58;;;5.50;100.00;;;;;;5007263;28;20049;-77
2023/04/09 07:31:39;;;;;;;49.80;16.45;;;5.50;100.00;;;;;;5025253;28;20045;-77
2023/04/09 07:34:06;;;;;;;57.78;18.60;;;5.50;100.00;;;;;;5024223;28;20131;-76
2023/04/09 07:36:33;;;;;;;51.22;18.70;;;5.50;100.00;;;;;;5007147;28;20042;-77
2023/04/09 07:39:00;;;;;;;61.53;19.67;;;5.60;100.00;;;;;;5026865;28;20050;-77
2023/04/09 07:41:27;;;;;;;61.95;18.15;;;5.50;99.90;;;;;;5024695;28;20081;-77
2023/04/09 07:43:54;;;;;;;63.13;17.33;;;5.60;100.00;;;;;;5024965;28;20049;-77
2023/04/09 07:46:21;;;;;;;51.95;16.98;;;5.70;100.00;;;;;;5022870;28;20049;-77
2023/04/09 07:48:48;;;;;;;63.92;19.15;;;5.70;100.00;;;;;;5025173;28;20049;-77
2023/04/09 07:51:16;;;;;;;55.08;17.42;;;5.80;100.00;;;;;;5024570;28;20050;-77
2023/04/09 07:53:42;;;;;;;59.60;17.77;;;5.80;99.70;;;;;;5024347;28;20087;-77
2023/04/09 07:56:09;;;;;;;48.13;17.05;;;5.70;98.60;;;;;;5024715;28;20045;-76
2023/04/09 07:58:37;;;;;;;56.17;18.10;;;5.80;99.60;;;;;;5024872;28;20050;-77
2023/04/09 08:04:41;;;;;;;54.85;18.55;;;5.90;99.50;;;;;;5059976;28;20048;-78
2023/04/09 08:07:08;;;;;;;54.10;18.17;;;5.90;99.30;;;;;;5045862;28;20048;-79
2023/04/09 08:09:35;;;;;;;53.05;18.50;;;5.90;98.80;;;;;;5062994;28;20553;-78
2023/04/09 08:12:02;;;;;;;67.93;18.70;;;5.90;97.80;;;;;;5063695;28;20077;-78
2023/04/09 08:14:29;;;;;;;59.10;18.73;;;5.90;98.20;;;;;;5048523;28;20058;-78
2023/04/09 08:16:56;;;;;;;52.30;17.73;;;6.00;98.80;;;;;;5049585;28;20883;-79
2023/04/09 08:19:23;;;;;;;51.13;17.63;;;6.00;98.70;;;;;;5049345;28;20152;-78
2023/04/09 08:21:51;;;;;;;59.08;20.05;;;6.00;98.50;;;;;;5067484;28;20044;-79
2023/04/09 08:24:18;;;;;;;63.80;20.02;;;6.00;98.10;;;;;;5066387;28;20135;-79
2023/04/09 08:26:45;;;;;;;57.60;20.20;;;6.10;98.20;;;;;;5068315;28;20040;-78
2023/04/09 08:29:13;;;;;;;68.03;22.27;;;6.00;97.60;;;;;;5069235;28;20048;-79
2023/04/09 08:31:41;;;;;;;55.97;20.38;;;6.00;98.10;;;;;;5050569;28;20057;-79
2023/04/09 08:34:08;;;;;;;67.32;25.60;;;6.00;97.90;;;;;;5046429;28;20616;-78
2023/04/09 08:36:35;;;;;;;68.35;26.70;;;6.10;98.90;;;;;;5068846;28;20047;-78
2023/04/09 08:39:03;;;;;;;91.60;33.40;;;6.10;98.80;;;;;;5068486;28;20730;-79
2023/04/09 08:41:30;;;;;;;76.90;28.35;;;6.10;98.90;;;;;;5071048;28;20135;-78
2023/04/09 08:43:57;;;;;;;63.75;20.05;;;6.30;98.20;;;;;;5070104;28;20056;-79
2023/04/09 08:46:26;;;;;;;65.05;22.13;;;6.40;97.90;;;;;;5071523;28;20059;-79
2023/04/09 08:48:53;;;;;;;64.70;21.80;;;6.40;98.10;;;;;;5055001;28;20102;-79
2023/04/09 08:51:23;;;;;;;62.13;21.50;;;6.50;98.10;;;;;;5069736;28;20156;-79
2023/04/09 08:54:00;;;;;;;84.60;28.50;;;6.50;97.50;;;;;;5069188;28;20136;-79
2023/04/09 08:56:30;;;;;;;67.93;26.88;;;6.50;97.50;;;;;;5071114;28;20041;-79
2023/04/09 08:58:57;;;;;;;74.47;24.42;;;6.50;96.30;;;;;;5053022;28;20097;-79
2023/04/09 09:01:30;;;;;;;73.40;26.23;;;6.50;96.80;;;;;;5070808;28;20064;-79
2023/04/09 09:04:05;;;;;;;86.97;32.80;;;6.50;96.70;;;;;;5070345;28;20068;-79
2023/04/09 09:06:37;;;;;;;167.73;61.80;;;6.50;96.30;;;;;;5053110;28;20048;-79
2023/04/09 09:09:06;;;;;;;195.20;75.22;;;6.60;96.40;;;;;;5066681;28;20052;-79
2023/04/09 09:11:35;;;;;;;136.77;56.75;;;6.60;96.60;;;;;;5050829;28;20051;-79
2023/04/09 09:14:22;;;;;;;119.30;49.85;;;6.70;96.70;;;;;;5053189;28;20136;-79
2023/04/09 09:16:55;;;;;;;88.68;36.70;;;6.80;96.50;;;;;;5070605;28;20055;-79
2023/04/09 09:19:25;;;;;;;68.57;26.25;;;6.80;95.90;;;;;;5052167;28;20424;-78
2023/04/09 09:22:00;;;;;;;62.50;21.45;;;6.90;96.50;;;;;;5069750;28;20227;-79
2023/04/09 09:24:27;;;;;;;111.05;44.92;;;7.00;95.70;;;;;;5070181;28;20052;-79
2023/04/09 09:26:56;;;;;;;124.95;48.75;;;7.10;95.80;;;;;;5075565;22;20342;-79
2023/04/09 09:29:23;;;;;;;96.25;39.97;;;7.20;95.10;;;;;;5053194;28;20500;-79
2023/04/09 09:31:52;;;;;;;55.33;21.08;;;7.30;95.40;;;;;;5050847;22;20522;-76
2023/04/09 09:34:21;;;;;;;56.72;22.10;;;7.30;94.40;;;;;;5039179;28;20059;-77
2023/04/09 09:36:49;;;;;;;54.25;21.38;;;7.40;94.40;;;;;;5063689;28;20048;-77
2023/04/09 09:39:16;;;;;;;56.50;22.10;;;7.50;94.10;;;;;;5065943;28;20052;-77
2023/04/09 09:41:45;;;;;;;68.45;24.33;;;7.60;93.50;;;;;;5065058;28;20052;-77
2023/04/09 09:44:29;;;;;;;67.72;28.30;;;7.70;92.70;;;;;;5065845;28;20048;-77
2023/04/09 09:46:57;;;;;;;62.13;20.98;;;7.70;90.70;;;;;;5066300;28;20492;-76
2023/04/09 09:49:24;;;;;;;40.80;16.10;;;7.70;91.70;;;;;;5065749;28;20135;-77
2023/04/09 09:51:55;;;;;;;48.88;20.65;;;7.60;90.40;;;;;;5063782;28;20583;-76
2023/04/09 09:54:24;;;;;;;50.03;20.23;;;7.80;91.30;;;;;;5065730;28;20049;-76
2023/04/09 09:56:54;;;;;;;64.10;23.05;;;7.80;91.80;;;;;;5047954;28;20044;-76
2023/04/09 09:59:30;;;;;;;54.03;19.42;;;7.90;92.00;;;;;;5062394;28;20052;-76
2023/04/09 10:02:06;;;;;;;45.05;16.55;;;7.90;91.90;;;;;;5064682;28;20045;-77
2023/04/09 10:04:36;;;;;;;;;;;7.90;90.70;;;;;;5047321;28;20068;-76
2023/04/09 10:07:05;;;;;;;65.00;18.90;;;7.90;88.90;;;;;;5065851;28;19924;-77
2023/04/09 10:09:36;;;;;;;46.92;16.88;;;7.80;88.20;;;;;;5047831;28;20055;-77
2023/04/09 10:12:05;;;;;;;75.45;25.75;;;7.70;90.10;;;;;;5064900;28;20075;-77
2023/04/09 10:14:34;;;;;;;61.40;22.52;;;7.80;89.30;;;;;;5047527;28;20476;-76
2023/04/09 10:17:02;;;;;;;53.53;18.35;;;7.80;89.90;;;;;;5065593;28;20048;-77
2023/04/09 10:19:33;;;;;;;56.72;18.05;;;7.80;89.20;;;;;;5065521;28;20061;-77
2023/04/09 10:22:10;;;;;;;53.60;18.52;;;7.70;89.50;;;;;;5046302;28;20044;-76
2023/04/09 10:24:38;;;;;;;42.45;16.85;;;7.70;90.10;;;;;;5064866;28;20053;-76
2023/04/09 10:27:12;;;;;;;51.00;17.85;;;7.60;89.60;;;;;;5047204;28;20044;-76
2023/04/09 10:29:47;;;;;;;46.80;17.85;;;7.70;90.70;;;;;;5060712;28;20067;-77
2023/04/09 10:32:22;;;;;;;56.67;17.83;;;7.70;91.30;;;;;;5046517;28;20049;-77
2023/04/09 10:34:49;;;;;;;43.03;16.30;;;7.70;91.10;;;;;;5063678;28;20064;-77
2023/04/09 10:37:22;;;;;;;57.88;18.63;;;7.60;90.70;;;;;;5062930;28;20524;-77
2023/04/09 10:39:51;;;;;;;43.00;16.38;;;7.70;90.60;;;;;;5063356;28;20492;-77
2023/04/09 10:42:23;;;;;;;43.83;16.65;;;7.80;89.90;;;;;;5061961;28;20469;-77
2023/04/09 10:45:03;;;;;;;45.55;15.73;;;7.90;90.30;;;;;;5063647;28;20185;-77
2023/04/09 10:47:32;;;;;;;56.22;21.65;;;7.90;89.80;;;;;;5065099;28;20048;-77
2023/04/09 10:50:21;;;;;;;64.38;21.92;;;8.00;89.20;;;;;;5062470;28;20107;-77
2023/04/09 10:52:55;;;;;;;53.58;20.08;;;7.90;89.90;;;;;;5063159;28;20848;-77
2023/04/09 10:55:38;;;;;;;61.10;23.88;;;7.90;89.50;;;;;;5063384;28;20044;-77
2023/04/09 10:58:07;;;;;;;65.75;22.23;;;7.80;89.50;;;;;;5064344;28;20040;-76
2023/04/09 11:00:42;;;;;;;59.85;21.73;;;7.90;90.10;;;;;;5060005;28;20048;-77
2023/04/09 11:03:25;;;;;;;51.15;17.52;;;7.90;90.80;;;;;;5064166;28;20651;-76
2023/04/09 11:06:07;;;;;;;41.38;16.70;;;8.20;90.00;;;;;;5060666;28;20107;-76
2023/04/09 11:08:36;;;;;;;46.60;17.00;;;8.30;89.10;;;;;;5059145;28;20048;-76
2023/04/09 11:11:04;;;;;;;93.10;29.33;;;8.40;88.50;;;;;;5063972;28;20053;-76
2023/04/09 11:13:32;;;;;;;67.07;21.75;;;8.40;88.60;;;;;;5063337;28;20413;-77
2023/04/09 11:16:02;;;;;;;75.53;23.27;;;8.50;87.00;;;;;;5065069;28;20053;-76
2023/04/09 11:18:29;;;;;;;58.33;18.63;;;8.50;87.30;;;;;;5060995;28;20059;-77
2023/04/09 11:20:58;;;;;;;66.25;21.35;;;8.50;87.80;;;;;;5063981;28;20044;-77
2023/04/09 11:23:25;;;;;;;69.07;21.58;;;8.60;87.90;;;;;;5062616;28;20506;-76
2023/04/09 11:25:53;;;;;;;66.03;19.83;;;8.60;86.20;;;;;;5062784;28;20409;-76
2023/04/09 11:28:20;;;;;;;73.72;17.27;;;8.80;87.10;;;;;;5062832;28;20131;-77
2023/04/09 11:30:50;;;;;;;66.18;19.42;;;8.90;86.10;;;;;;5061053;28;20052;-76
2023/04/09 11:33:17;;;;;;;53.17;17.10;;;8.80;86.40;;;;;;5064503;28;20052;-76
2023/04/09 11:35:46;;;;;;;56.05;15.85;;;8.90;86.50;;;;;;5064470;28;20069;-76
2023/04/09 11:38:13;;;;;;;58.05;15.80;;;8.90;85.80;;;;;;5046896;28;20098;-77
2023/04/09 11:40:48;;;;;;;59.90;15.63;;;8.90;86.50;;;;;;5063637;28;20048;-76
2023/04/09 11:43:16;;;;;;;50.92;15.82;;;9.10;86.50;;;;;;5063671;28;20045;-77
2023/04/09 11:45:46;;;;;;;51.40;16.60;;;9.40;86.10;;;;;;5064446;28;20123;-77
2023/04/09 11:48:13;;;;;;;82.57;28.58;;;9.60;84.20;;;;;;5062871;28;20395;-76
2023/04/09 11:50:40;;;;;;;74.65;23.92;;;9.80;84.10;;;;;;5063546;28;20082;-77
2023/04/09 11:53:21;;;;;;;56.97;18.55;;;9.80;83.30;;;;;;5063379;28;20151;-77
2023/04/09 11:55:52;;;;;;;57.72;17.13;;;9.80;82.70;;;;;;5061735;28;20157;-77
2023/04/09 11:58:24;;;;;;;55.75;15.90;;;9.80;83.00;;;;;;5044257;28;20056;-77
2023/04/09 12:00:56;;;;;;;56.05;16.58;;;9.90;82.30;;;;;;5046071;28;20048;-79
2023/04/09 12:03:33;;;;;;;65.93;19.85;;;9.90;81.00;;;;;;5066570;28;20519;-81
2023/04/09 12:06:01;;;;;;;53.33;17.40;;;10.10;82.80;;;;;;5052117;28;20056;-83
2023/04/09 12:08:30;;;;;;;54.08;17.67;;;10.20;82.20;;;;;;5054910;28;20127;-83
2023/04/09 12:11:06;;;;;;;58.55;19.42;;;10.20;81.00;;;;;;5046530;28;20044;-83
2023/04/09 12:13:33;;;;;;;54.38;20.52;;;10.20;80.80;;;;;;5053362;28;20135;-79
2023/04/09 12:16:02;;;;;;;47.92;16.60;;;10.30;79.70;;;;;;5071974;28;20079;-82
2023/04/09 12:18:29;;;;;;;43.97;15.57;;;10.20;81.20;;;;;;5071705;28;20124;-81
2023/04/09 12:20:55;;;;;;;64.07;18.85;;;10.30;80.90;;;;;;5049544;28;20048;-78
2023/04/09 12:23:22;;;;;;;48.78;14.60;;;10.30;79.80;;;;;;5053365;28;20480;-80
2023/04/09 12:25:49;;;;;;;42.55;15.27;;;10.30;79.80;;;;;;5051367;28;20063;-79
2023/04/09 12:28:16;;;;;;;53.50;19.80;;;10.30;79.90;;;;;;5069215;28;20576;-80
2023/04/09 12:30:45;;;;;;;57.13;20.33;;;10.20;79.20;;;;;;5064948;28;20048;-79
2023/04/09 12:33:12;;;;;;;53.08;20.33;;;10.20;81.20;;;;;;5052542;28;20059;-76
2023/04/09 12:35:38;;;;;;;56.40;21.00;;;10.30;81.20;;;;;;5067592;28;20060;-77
2023/04/09 12:38:06;;;;;;;49.67;17.00;;;10.20;80.00;;;;;;5064927;28;20858;-77
2023/04/09 12:40:34;;;;;;;47.58;19.48;;;10.30;80.40;;;;;;5066918;28;20646;-87
2023/04/09 12:43:02;;;;;;;50.30;15.82;;;10.40;80.30;;;;;;5063843;28;20040;-78
2023/04/09 12:45:29;;;;;;;46.42;15.32;;;10.50;80.30;;;;;;5066216;28;20131;-80
2023/04/09 12:47:56;;;;;;;57.95;19.05;;;10.60;79.90;;;;;;5066866;28;20048;-81